John_paul K — PBHY — position and weather

sailwx.info

Track history (hours):
 
Tides and Currents Weather Stations Pressure Air Temp Water Temp Dewpoint Dewpoint Depression Visibility Wind Speed Wind Dir Waves Ship Positions

John_paul K

Last reported at 2017-Aug-20 23:00 UTC. Time now 2017-Aug-20 23:09 UTC.
Position N 51°58' E 004°07'.

Length 90 m; draft 3.8 m.

Type: Cargo ship. MMSI: 245181000.

Date/timePositionNaut miles runAvg speedWind from/ knotsBaromVisibWave heightAir tempDewpointWater temp
2017-Aug-20 23:00N 51°58' E 004°07'0 0.0
2017-Aug-20 22:30N 51°58' E 004°07'0 0.0
2017-Aug-20 22:00N 51°58' E 004°07'0 0.0
2017-Aug-20 21:30N 51°58' E 004°07'0 0.0
2017-Aug-20 21:00N 51°58' E 004°07'0 0.0
2017-Aug-20 20:30N 51°58' E 004°07'0 0.0
2017-Aug-20 20:00N 51°58' E 004°07'0 0.0
2017-Aug-20 19:30N 51°58' E 004°07'0 0.0
2017-Aug-20 19:00N 51°58' E 004°07'0 0.0
2017-Aug-20 18:30N 51°58' E 004°07'0 0.0
2017-Aug-20 18:00N 51°58' E 004°07'0 0.0
2017-Aug-20 17:30N 51°58' E 004°07'0 0.0
2017-Aug-20 17:00N 51°58' E 004°07'0 0.0
2017-Aug-20 16:29N 51°58' E 004°07'0 0.0
2017-Aug-20 16:00N 51°58' E 004°07'0 0.0
2017-Aug-20 15:30N 51°58' E 004°07'0 0.0
2017-Aug-20 15:00N 51°58' E 004°07'0 0.0
2017-Aug-20 14:30N 51°58' E 004°07'0 0.0
2017-Aug-20 14:00N 51°58' E 004°07'0 0.0
2017-Aug-20 13:30N 51°58' E 004°07'0 0.0
2017-Aug-20 13:00N 51°58' E 004°07'0 0.0
2017-Aug-20 12:30N 51°58' E 004°07'0 0.0
2017-Aug-20 12:00N 51°58' E 004°07'0 0.0
2017-Aug-20 11:30N 51°58' E 004°07'0 0.0
2017-Aug-20 11:00N 51°58' E 004°07'0 0.0
2017-Aug-20 10:30N 51°58' E 004°07'0 0.0
2017-Aug-20 10:00N 51°58' E 004°07'0 0.0
2017-Aug-20 09:30N 51°58' E 004°07'0 0.0
2017-Aug-20 09:00N 51°58' E 004°07'0 0.0
2017-Aug-20 08:30N 51°58' E 004°07'0 0.0
2017-Aug-20 08:00N 51°58' E 004°07'0 0.0
2017-Aug-20 07:30N 51°58' E 004°07'0 0.0
2017-Aug-20 07:00N 51°58' E 004°07'0 0.0
2017-Aug-20 06:30N 51°58' E 004°07'0 0.0
2017-Aug-20 06:00N 51°58' E 004°07'0 0.0
2017-Aug-20 05:30N 51°58' E 004°07'0 0.0
2017-Aug-20 05:00N 51°58' E 004°07'0 0.0
2017-Aug-20 04:30N 51°58' E 004°07'0 0.0
2017-Aug-20 03:59N 51°58' E 004°07'0 0.0
2017-Aug-20 03:30N 51°58' E 004°07'0 0.0
2017-Aug-20 03:00N 51°58' E 004°07'0 0.0
2017-Aug-20 02:30N 51°58' E 004°07'0 0.0
2017-Aug-20 02:00N 51°58' E 004°07'0 0.0
2017-Aug-20 01:30N 51°58' E 004°07'0 0.0
2017-Aug-20 01:00N 51°58' E 004°07'0 0.0
2017-Aug-20 00:30N 51°58' E 004°07'0 0.0
2017-Aug-20 00:00N 51°58' E 004°07'0 0.0
2017-Aug-19 23:30N 51°58' E 004°07'2 3.5
2017-Aug-19 23:00N 51°59' E 004°05'612.1
2017-Aug-19 22:30N 52°00' E 003°56'5 9.1
2017-Aug-19 22:00N 52°02' E 003°49'611.4
2017-Aug-19 21:30N 52°07' E 003°47'5 9.2
2017-Aug-19 21:00N 52°12' E 003°50'611.2
2017-Aug-19 20:30N 52°14' E 003°59'612.1
2017-Aug-19 20:00N 52°18' E 004°06'612.0
2017-Aug-19 19:30N 52°21' E 004°14'612.1
2017-Aug-19 19:00N 52°25' E 004°22'611.3
2017-Aug-19 18:30N 52°28' E 004°30'4 7.8
2017-Aug-19 18:01N 52°28' E 004°37'3 5.5
2017-Aug-19 17:30N 52°27' E 004°41'511.0
2017-Aug-19 17:00N 52°25' E 004°49'0 0.1
2017-Aug-19 16:28N 52°25' E 004°49'0 0.0
2017-Aug-19 15:58N 52°25' E 004°49'0 0.0
2017-Aug-19 15:28N 52°25' E 004°49'0 0.0
2017-Aug-19 14:58N 52°25' E 004°49'0 0.0
2017-Aug-19 13:55N 52°25' E 004°49'0 0.0
2017-Aug-19 13:28N 52°25' E 004°49'0 0.0
2017-Aug-19 12:58N 52°25' E 004°49'0 0.0
2017-Aug-19 12:28N 52°25' E 004°49'0 0.0
2017-Aug-19 11:58N 52°25' E 004°49'0 0.0
2017-Aug-19 11:28N 52°25' E 004°49'0 0.0
2017-Aug-19 10:58N 52°25' E 004°49'0 0.0
2017-Aug-19 10:28N 52°25' E 004°49'0 0.0
2017-Aug-19 09:58N 52°25' E 004°49'0 0.0
2017-Aug-19 09:28N 52°25' E 004°49'0 0.0
2017-Aug-19 09:01N 52°25' E 004°49'0 0.0
2017-Aug-19 08:31N 52°25' E 004°49'0 0.0
2017-Aug-19 08:00N 52°25' E 004°49'0 0.0
2017-Aug-19 07:27N 52°25' E 004°49'0 0.0
2017-Aug-19 06:57N 52°25' E 004°49'0 0.0
2017-Aug-19 06:30N 52°25' E 004°49'0 0.0
2017-Aug-19 06:00N 52°25' E 004°49'0 0.0
2017-Aug-19 05:30N 52°25' E 004°49'0 0.0
2017-Aug-19 05:00N 52°25' E 004°49'0 0.0
2017-Aug-19 04:30N 52°25' E 004°49'0 0.0
2017-Aug-19 04:00N 52°25' E 004°49'0 0.0
2017-Aug-19 03:30N 52°25' E 004°49'0 0.0
2017-Aug-19 03:00N 52°25' E 004°49'0 0.0
2017-Aug-19 02:27N 52°25' E 004°49'0 0.0
2017-Aug-19 02:00N 52°25' E 004°49'0 0.0
2017-Aug-19 01:30N 52°25' E 004°49'0 0.0
2017-Aug-19 01:00N 52°25' E 004°49'0 0.0
2017-Aug-19 00:30N 52°25' E 004°49'0 0.0
2017-Aug-19 00:00N 52°25' E 004°49'0 0.0
2017-Aug-18 23:30N 52°25' E 004°49'0 0.0
2017-Aug-18 23:00N 52°25' E 004°49'0 0.0
2017-Aug-18 22:30N 52°25' E 004°49'0 0.0
2017-Aug-18 21:57N 52°25' E 004°49'0 0.0
2017-Aug-18 21:24N 52°25' E 004°49'0 0.0
2017-Aug-18 21:00N 52°25' E 004°49'0 0.0
2017-Aug-18 20:30N 52°25' E 004°49'0 0.0
2017-Aug-18 20:00N 52°25' E 004°49'0 0.0
2017-Aug-18 19:30N 52°25' E 004°49'0 0.0
2017-Aug-18 19:00N 52°25' E 004°49'0 0.0
2017-Aug-18 18:30N 52°25' E 004°49'0 0.0
2017-Aug-18 17:57N 52°25' E 004°49'0 0.0
2017-Aug-18 17:30N 52°25' E 004°49'0 0.0
2017-Aug-18 17:00N 52°25' E 004°49'0 0.0
2017-Aug-18 16:30N 52°25' E 004°49'0 0.0
2017-Aug-18 16:00N 52°25' E 004°49'1 2.6
2017-Aug-18 15:30N 52°25' E 004°47'5 9.8
2017-Aug-18 15:00N 52°28' E 004°40'2 4.3
2017-Aug-18 14:30N 52°28' E 004°36'4 3.5
2017-Aug-18 13:30N 52°28' E 004°31'4 9.0
2017-Aug-18 13:00N 52°29' E 004°23'5 9.7
2017-Aug-18 12:30N 52°29' E 004°15'510.1
2017-Aug-18 12:00N 52°29' E 004°07'610.5
2017-Aug-18 11:29N 52°27' E 003°58'2410.9
2017-Aug-18 09:18N 52°16' E 003°24'617.6
2017-Aug-18 08:58N 52°12' E 003°17'3 6.3
2017-Aug-18 08:29N 52°10' E 003°13'53 9.5
2017-Aug-18 02:53N 51°29' E 002°17'4 9.2
2017-Aug-18 02:30N 51°26' E 002°14'5 9.2
2017-Aug-18 02:00N 51°22' E 002°11'5 9.5
2017-Aug-18 01:30N 51°18' E 002°07'5 9.7
2017-Aug-18 01:00N 51°14' E 002°03'5 9.9
2017-Aug-18 00:30N 51°11' E 001°57'510.1
2017-Aug-18 00:00N 51°08' E 001°50'510.3
2017-Aug-17 23:30N 51°04' E 001°45'510.7
2017-Aug-17 23:00N 51°00' E 001°39'611.0
2017-Aug-17 22:29N 50°56' E 001°33'124 9.9
2017-Aug-17 09:59N 50°05' W 001°25'4 7.9
2017-Aug-17 09:30N 50°04' W 001°30'4 7.7
2017-Aug-17 09:00N 50°02' W 001°36'4 7.8
2017-Aug-17 08:30N 50°01' W 001°42'4 8.0
2017-Aug-17 08:00N 50°00' W 001°48'4 8.5
2017-Aug-17 07:30N 49°59' W 001°54'3310.5
2017-Aug-17 04:22N 49°49' W 002°43'411.1
2017-Aug-17 03:59N 49°48' W 002°49'1811.1
2017-Aug-17 02:22N 49°39' W 003°14'410.9
2017-Aug-17 02:00N 49°37' W 003°19'1110.9
2017-Aug-17 00:59N 49°32' W 003°34'9010.1
2017-Aug-16 16:02N 48°46' W 005°33'  
2017-Aug-12 13:19N 42°50' W 010°00'  
Track history (hours):
 
Tides and Currents Weather Stations Pressure Air Temp Water Temp Dewpoint Dewpoint Depression Visibility Wind Speed Wind Dir Waves Ship Positions

John_paul K

Last reported at 2017-Aug-20 23:00 UTC. Time now 2017-Aug-20 23:09 UTC.
Position N 51°58' E 004°07'.

Length 90 m; draft 3.8 m.

Type: Cargo ship. MMSI: 245181000.

Date/timePositionNaut miles runAvg speedWind from/ knotsBaromVisibWave heightAir tempDewpointWater temp
2017-Aug-20 23:00N 51°58' E 004°07'0 0.0
2017-Aug-20 22:30N 51°58' E 004°07'0 0.0
2017-Aug-20 22:00N 51°58' E 004°07'0 0.0
2017-Aug-20 21:30N 51°58' E 004°07'0 0.0
2017-Aug-20 21:00N 51°58' E 004°07'0 0.0
2017-Aug-20 20:30N 51°58' E 004°07'0 0.0
2017-Aug-20 20:00N 51°58' E 004°07'0 0.0
2017-Aug-20 19:30N 51°58' E 004°07'0 0.0
2017-Aug-20 19:00N 51°58' E 004°07'0 0.0
2017-Aug-20 18:30N 51°58' E 004°07'0 0.0
2017-Aug-20 18:00N 51°58' E 004°07'0 0.0
2017-Aug-20 17:30N 51°58' E 004°07'0 0.0
2017-Aug-20 17:00N 51°58' E 004°07'0 0.0
2017-Aug-20 16:29N 51°58' E 004°07'0 0.0
2017-Aug-20 16:00N 51°58' E 004°07'0 0.0
2017-Aug-20 15:30N 51°58' E 004°07'0 0.0
2017-Aug-20 15:00N 51°58' E 004°07'0 0.0
2017-Aug-20 14:30N 51°58' E 004°07'0 0.0
2017-Aug-20 14:00N 51°58' E 004°07'0 0.0
2017-Aug-20 13:30N 51°58' E 004°07'0 0.0
2017-Aug-20 13:00N 51°58' E 004°07'0 0.0
2017-Aug-20 12:30N 51°58' E 004°07'0 0.0
2017-Aug-20 12:00N 51°58' E 004°07'0 0.0
2017-Aug-20 11:30N 51°58' E 004°07'0 0.0
2017-Aug-20 11:00N 51°58' E 004°07'0 0.0
2017-Aug-20 10:30N 51°58' E 004°07'0 0.0
2017-Aug-20 10:00N 51°58' E 004°07'0 0.0
2017-Aug-20 09:30N 51°58' E 004°07'0 0.0
2017-Aug-20 09:00N 51°58' E 004°07'0 0.0
2017-Aug-20 08:30N 51°58' E 004°07'0 0.0
2017-Aug-20 08:00N 51°58' E 004°07'0 0.0
2017-Aug-20 07:30N 51°58' E 004°07'0 0.0
2017-Aug-20 07:00N 51°58' E 004°07'0 0.0
2017-Aug-20 06:30N 51°58' E 004°07'0 0.0
2017-Aug-20 06:00N 51°58' E 004°07'0 0.0
2017-Aug-20 05:30N 51°58' E 004°07'0 0.0
2017-Aug-20 05:00N 51°58' E 004°07'0 0.0
2017-Aug-20 04:30N 51°58' E 004°07'0 0.0
2017-Aug-20 03:59N 51°58' E 004°07'0 0.0
2017-Aug-20 03:30N 51°58' E 004°07'0 0.0
2017-Aug-20 03:00N 51°58' E 004°07'0 0.0
2017-Aug-20 02:30N 51°58' E 004°07'0 0.0
2017-Aug-20 02:00N 51°58' E 004°07'0 0.0
2017-Aug-20 01:30N 51°58' E 004°07'0 0.0
2017-Aug-20 01:00N 51°58' E 004°07'0 0.0
2017-Aug-20 00:30N 51°58' E 004°07'0 0.0
2017-Aug-20 00:00N 51°58' E 004°07'0 0.0
2017-Aug-19 23:30N 51°58' E 004°07'2 3.5
2017-Aug-19 23:00N 51°59' E 004°05'612.1
2017-Aug-19 22:30N 52°00' E 003°56'5 9.1
2017-Aug-19 22:00N 52°02' E 003°49'611.4
2017-Aug-19 21:30N 52°07' E 003°47'5 9.2
2017-Aug-19 21:00N 52°12' E 003°50'611.2
2017-Aug-19 20:30N 52°14' E 003°59'612.1
2017-Aug-19 20:00N 52°18' E 004°06'612.0
2017-Aug-19 19:30N 52°21' E 004°14'612.1
2017-Aug-19 19:00N 52°25' E 004°22'611.3
2017-Aug-19 18:30N 52°28' E 004°30'4 7.8
2017-Aug-19 18:01N 52°28' E 004°37'3 5.5
2017-Aug-19 17:30N 52°27' E 004°41'511.0
2017-Aug-19 17:00N 52°25' E 004°49'0 0.1
2017-Aug-19 16:28N 52°25' E 004°49'0 0.0
2017-Aug-19 15:58N 52°25' E 004°49'0 0.0
2017-Aug-19 15:28N 52°25' E 004°49'0 0.0
2017-Aug-19 14:58N 52°25' E 004°49'0 0.0
2017-Aug-19 13:55N 52°25' E 004°49'0 0.0
2017-Aug-19 13:28N 52°25' E 004°49'0 0.0
2017-Aug-19 12:58N 52°25' E 004°49'0 0.0
2017-Aug-19 12:28N 52°25' E 004°49'0 0.0
2017-Aug-19 11:58N 52°25' E 004°49'0 0.0
2017-Aug-19 11:28N 52°25' E 004°49'0 0.0
2017-Aug-19 10:58N 52°25' E 004°49'0 0.0
2017-Aug-19 10:28N 52°25' E 004°49'0 0.0
2017-Aug-19 09:58N 52°25' E 004°49'0 0.0
2017-Aug-19 09:28N 52°25' E 004°49'0 0.0
2017-Aug-19 09:01N 52°25' E 004°49'0 0.0
2017-Aug-19 08:31N 52°25' E 004°49'0 0.0
2017-Aug-19 08:00N 52°25' E 004°49'0 0.0
2017-Aug-19 07:27N 52°25' E 004°49'0 0.0
2017-Aug-19 06:57N 52°25' E 004°49'0 0.0
2017-Aug-19 06:30N 52°25' E 004°49'0 0.0
2017-Aug-19 06:00N 52°25' E 004°49'0 0.0
2017-Aug-19 05:30N 52°25' E 004°49'0 0.0
2017-Aug-19 05:00N 52°25' E 004°49'0 0.0
2017-Aug-19 04:30N 52°25' E 004°49'0 0.0
2017-Aug-19 04:00N 52°25' E 004°49'0 0.0
2017-Aug-19 03:30N 52°25' E 004°49'0 0.0
2017-Aug-19 03:00N 52°25' E 004°49'0 0.0
2017-Aug-19 02:27N 52°25' E 004°49'0 0.0
2017-Aug-19 02:00N 52°25' E 004°49'0 0.0
2017-Aug-19 01:30N 52°25' E 004°49'0 0.0
2017-Aug-19 01:00N 52°25' E 004°49'0 0.0
2017-Aug-19 00:30N 52°25' E 004°49'0 0.0
2017-Aug-19 00:00N 52°25' E 004°49'0 0.0
2017-Aug-18 23:30N 52°25' E 004°49'0 0.0
2017-Aug-18 23:00N 52°25' E 004°49'0 0.0
2017-Aug-18 22:30N 52°25' E 004°49'0 0.0
2017-Aug-18 21:57N 52°25' E 004°49'0 0.0
2017-Aug-18 21:24N 52°25' E 004°49'0 0.0
2017-Aug-18 21:00N 52°25' E 004°49'0 0.0
2017-Aug-18 20:30N 52°25' E 004°49'0 0.0
2017-Aug-18 20:00N 52°25' E 004°49'0 0.0
2017-Aug-18 19:30N 52°25' E 004°49'0 0.0
2017-Aug-18 19:00N 52°25' E 004°49'0 0.0
2017-Aug-18 18:30N 52°25' E 004°49'0 0.0
2017-Aug-18 17:57N 52°25' E 004°49'0 0.0
2017-Aug-18 17:30N 52°25' E 004°49'0 0.0
2017-Aug-18 17:00N 52°25' E 004°49'0 0.0
2017-Aug-18 16:30N 52°25' E 004°49'0 0.0
2017-Aug-18 16:00N 52°25' E 004°49'1 2.6
2017-Aug-18 15:30N 52°25' E 004°47'5 9.8
2017-Aug-18 15:00N 52°28' E 004°40'2 4.3
2017-Aug-18 14:30N 52°28' E 004°36'4 3.5
2017-Aug-18 13:30N 52°28' E 004°31'4 9.0
2017-Aug-18 13:00N 52°29' E 004°23'5 9.7
2017-Aug-18 12:30N 52°29' E 004°15'510.1
2017-Aug-18 12:00N 52°29' E 004°07'610.5
2017-Aug-18 11:29N 52°27' E 003°58'2410.9
2017-Aug-18 09:18N 52°16' E 003°24'617.6
2017-Aug-18 08:58N 52°12' E 003°17'3 6.3
2017-Aug-18 08:29N 52°10' E 003°13'53 9.5
2017-Aug-18 02:53N 51°29' E 002°17'4 9.2
2017-Aug-18 02:30N 51°26' E 002°14'5 9.2
2017-Aug-18 02:00N 51°22' E 002°11'5 9.5
2017-Aug-18 01:30N 51°18' E 002°07'5 9.7
2017-Aug-18 01:00N 51°14' E 002°03'5 9.9
2017-Aug-18 00:30N 51°11' E 001°57'510.1
2017-Aug-18 00:00N 51°08' E 001°50'510.3
2017-Aug-17 23:30N 51°04' E 001°45'510.7
2017-Aug-17 23:00N 51°00' E 001°39'611.0
2017-Aug-17 22:29N 50°56' E 001°33'124 9.9
2017-Aug-17 09:59N 50°05' W 001°25'4 7.9
2017-Aug-17 09:30N 50°04' W 001°30'4 7.7
2017-Aug-17 09:00N 50°02' W 001°36'4 7.8
2017-Aug-17 08:30N 50°01' W 001°42'4 8.0
2017-Aug-17 08:00N 50°00' W 001°48'4 8.5
2017-Aug-17 07:30N 49°59' W 001°54'3310.5
2017-Aug-17 04:22N 49°49' W 002°43'411.1
2017-Aug-17 03:59N 49°48' W 002°49'1811.1
2017-Aug-17 02:22N 49°39' W 003°14'410.9
2017-Aug-17 02:00N 49°37' W 003°19'1110.9
2017-Aug-17 00:59N 49°32' W 003°34'9010.1
2017-Aug-16 16:02N 48°46' W 005°33'  
2017-Aug-12 13:19N 42°50' W 010°00'  

Dump ship's entire track history